Time;durP1;ratioP1;P1;durP2;ratioP2;P2;SDS_P1;SDS_P2;PMS_P1;PMS_P2;Temp;Humidity;BMP_temperature;BMP_pressure;BME280_temperature;BME280_humidity;BME280_pressure;Samples;Min_cycle;Max_cycle;Signal;HPM_P1;HPM_P2
2022/03/06 00:01:29;;;;;;;16.50;12.55;;;;;;;3.39;100.00;102732.88;5074017;28;20066;-29
2022/03/06 00:03:57;;;;;;;16.38;12.68;;;;;;;3.38;100.00;102724.81;5072747;28;20049;-28
2022/03/06 00:06:24;;;;;;;17.40;12.43;;;;;;;3.40;100.00;102726.28;5073685;28;20070;-28
2022/03/06 00:08:52;;;;;;;17.30;12.38;;;;;;;3.42;100.00;102720.56;5073310;28;20045;-31
2022/03/06 00:11:20;;;;;;;17.67;11.68;;;;;;;3.44;99.65;102732.25;5072586;28;20047;-27
2022/03/06 00:13:48;;;;;;;15.82;11.93;;;;;;;3.46;99.60;102725.47;5073577;28;20075;-26
2022/03/06 00:16:15;;;;;;;14.25;11.10;;;;;;;3.47;99.54;102724.41;5073327;28;20049;-29
2022/03/06 00:18:44;;;;;;;13.98;10.55;;;;;;;3.50;99.37;102722.31;5071200;28;20048;-29
2022/03/06 00:21:13;;;;;;;18.42;11.88;;;;;;;3.52;99.22;102732.06;5072504;28;20048;-31
2022/03/06 00:23:41;;;;;;;16.95;12.13;;;;;;;3.54;99.34;102729.97;5073505;28;20448;-29
2022/03/06 00:26:08;;;;;;;16.15;11.60;;;;;;;3.55;99.46;102728.91;5072573;28;20044;-31
2022/03/06 00:28:36;;;;;;;18.83;12.00;;;;;;;3.56;99.65;102733.38;5073188;28;20044;-29
2022/03/06 00:31:05;;;;;;;17.70;11.68;;;;;;;3.58;99.54;102725.75;5073026;28;20044;-32
2022/03/06 00:33:32;;;;;;;15.23;10.23;;;;;;;3.57;99.85;102732.31;5072117;28;20063;-30
2022/03/06 00:36:01;;;;;;;18.65;11.73;;;;;;;3.58;99.87;102736.78;5072807;28;20110;-29
2022/03/06 00:38:29;;;;;;;15.10;11.35;;;;;;;3.58;99.65;102742.31;5073061;28;20151;-26
2022/03/06 00:40:57;;;;;;;14.73;10.20;;;;;;;3.58;99.96;102739.53;5061169;28;20113;-27
2022/03/06 00:43:25;;;;;;;15.60;11.13;;;;;;;3.59;100.00;102743.16;5072936;28;20036;-28
2022/03/06 00:45:53;;;;;;;15.40;11.50;;;;;;;3.59;100.00;102749.53;5072668;28;20048;-31
2022/03/06 00:48:21;;;;;;;15.35;10.68;;;;;;;3.59;100.00;102746.75;5071864;28;20041;-27
2022/03/06 00:50:49;;;;;;;13.32;10.15;;;;;;;3.58;100.00;102742.31;5072765;28;20044;-27
2022/03/06 00:53:18;;;;;;;16.65;10.02;;;;;;;3.58;100.00;102742.31;5072058;28;20509;-30
2022/03/06 00:55:46;;;;;;;17.40;9.98;;;;;;;3.58;100.00;102741.44;5071263;28;20064;-30
2022/03/06 00:58:14;;;;;;;14.82;10.43;;;;;;;3.56;100.00;102749.94;5072598;28;20119;-30
2022/03/06 01:00:44;;;;;;;14.40;10.00;;;;;;;3.56;100.00;102749.94;5071377;28;20060;-29
2022/03/06 01:03:14;;;;;;;14.70;10.15;;;;;;;3.56;100.00;102744.41;5072958;28;20052;-29
2022/03/06 01:05:43;;;;;;;15.90;10.15;;;;;;;3.56;100.00;102752.69;5072295;28;20556;-28
2022/03/06 01:08:12;;;;;;;13.70;9.77;;;;;;;3.57;100.00;102745.28;5070275;28;20051;-25
2022/03/06 01:10:43;;;;;;;14.45;10.13;;;;;;;3.57;100.00;102750.78;5070428;28;20066;-31
2022/03/06 01:13:12;;;;;;;17.38;10.57;;;;;;;3.55;100.00;102748.22;5070133;28;20139;-29
2022/03/06 01:15:40;;;;;;;17.20;11.00;;;;;;;3.55;100.00;102748.22;5069432;28;20409;-28
2022/03/06 01:18:08;;;;;;;14.40;9.70;;;;;;;3.54;100.00;102757.56;5070050;28;20044;-29
2022/03/06 01:20:37;;;;;;;14.27;8.90;;;;;;;3.54;100.00;102751.19;5070241;28;20042;-28
2022/03/06 01:23:06;;;;;;;13.45;10.15;;;;;;;3.54;100.00;102757.56;5069286;28;20036;-30
2022/03/06 01:25:34;;;;;;;13.90;10.15;;;;;;;3.52;100.00;102756.91;5071498;28;20134;-31
2022/03/06 01:28:04;;;;;;;12.32;8.80;;;;;;;3.50;100.00;102759.03;5071129;28;20055;-28
2022/03/06 01:30:32;;;;;;;13.68;9.60;;;;;;;3.49;100.00;102759.22;5071099;28;20041;-28
2022/03/06 01:33:00;;;;;;;13.23;9.10;;;;;;;3.47;100.00;102757.53;5071032;28;20054;-30
2022/03/06 01:35:28;;;;;;;13.95;9.45;;;;;;;3.46;100.00;102760.50;5071141;28;20400;-32
2022/03/06 01:37:56;;;;;;;13.63;8.98;;;;;;;3.45;100.00;102761.53;5071585;28;20486;-28
2022/03/06 01:40:24;;;;;;;14.13;9.23;;;;;;;3.45;100.00;102769.81;5071766;28;20478;-28
2022/03/06 01:42:52;;;;;;;13.73;8.93;;;;;;;3.44;100.00;102770.88;5071270;28;20054;-29
2022/03/06 01:45:23;;;;;;;14.02;8.63;;;;;;;3.45;100.00;102767.06;5071854;28;20053;-30
2022/03/06 01:47:53;;;;;;;14.50;8.88;;;;;;;3.47;100.00;102770.47;5071842;28;20049;-28
2022/03/06 01:50:22;;;;;;;13.85;8.35;;;;;;;3.46;100.00;102768.78;5070970;28;20041;-32
2022/03/06 01:52:52;;;;;;;14.07;9.32;;;;;;;3.49;100.00;102767.50;5071511;28;20036;-29
2022/03/06 01:55:22;;;;;;;14.75;9.45;;;;;;;3.50;100.00;102770.06;5071752;28;20451;-30
2022/03/06 01:57:50;;;;;;;12.20;8.63;;;;;;;3.52;100.00;102765.19;5070741;28;20052;-29
2022/03/06 02:00:20;;;;;;;13.65;9.05;;;;;;;3.55;100.00;102769.47;5071584;28;20659;-30
2022/03/06 02:02:50;;;;;;;13.32;9.07;;;;;;;3.57;100.00;102770.09;5071328;28;20131;-29
2022/03/06 02:05:19;;;;;;;17.52;9.95;;;;;;;3.58;100.00;102764.38;5067295;28;20498;-30
2022/03/06 02:07:47;;;;;;;13.68;8.75;;;;;;;3.60;100.00;102764.16;5071300;28;20063;-29
2022/03/06 02:10:15;;;;;;;13.70;8.23;;;;;;;3.62;100.00;102764.78;5071498;28;20044;-26
2022/03/06 02:12:44;;;;;;;11.77;7.60;;;;;;;3.61;100.00;102763.94;5070799;28;20095;-30
2022/03/06 02:15:15;;;;;;;12.38;7.18;;;;;;;3.61;98.83;102761.19;5071640;28;20045;-31
2022/03/06 02:17:43;;;;;;;11.80;7.53;;;;;;;3.61;97.14;102763.94;5070692;28;20040;-29
2022/03/06 02:20:14;;;;;;;10.73;7.47;;;;;;;3.61;94.78;102761.19;5071072;28;20512;-29
2022/03/06 02:22:44;;;;;;;11.77;8.30;;;;;;;3.63;94.03;102764.59;5062996;28;20047;-30
2022/03/06 02:25:15;;;;;;;9.85;6.53;;;;;;;3.65;93.57;102765.25;5070737;28;20041;-30
2022/03/06 02:27:43;;;;;;;13.23;7.43;;;;;;;3.70;93.66;102759.97;5071283;28;20045;-28
2022/03/06 02:30:13;;;;;;;13.35;8.05;;;;;;;3.74;94.07;102766.78;5071202;28;20481;-30
2022/03/06 02:32:41;;;;;;;12.13;8.20;;;;;;;3.78;94.75;102759.78;5070166;28;20063;-28
2022/03/06 02:35:09;;;;;;;13.80;8.52;;;;;;;3.80;95.37;102756.78;5071199;28;20072;-27
2022/03/06 02:37:37;;;;;;;15.45;10.02;;;;;;;3.83;95.63;102758.28;5071111;28;20048;-29
2022/03/06 02:40:09;;;;;;;14.05;9.65;;;;;;;3.84;96.20;102758.06;5070173;28;20126;-32
2022/03/06 02:42:38;;;;;;;12.13;8.55;;;;;;;3.84;96.29;102754.47;5071311;28;20044;-29
2022/03/06 02:45:09;;;;;;;12.38;8.65;;;;;;;3.84;96.27;102751.72;5063303;28;20049;-29
2022/03/06 02:47:37;;;;;;;12.07;8.00;;;;;;;3.84;96.37;102751.72;5074273;28;20056;-29
2022/03/06 02:50:07;;;;;;;14.57;8.20;;;;;;;3.83;96.33;102750.84;5075035;28;20462;-31
2022/03/06 02:52:35;;;;;;;11.93;7.90;;;;;;;3.80;95.40;102751.25;5073643;28;20056;-30
2022/03/06 02:55:04;;;;;;;7.35;5.75;;;;;;;3.78;94.63;102757.03;5074081;28;20143;-29
2022/03/06 02:57:33;;;;;;;13.07;8.02;;;;;;;3.78;93.96;102748.75;5074703;28;20519;-30
2022/03/06 03:00:01;;;;;;;10.23;7.63;;;;;;;3.81;93.91;102747.44;5073066;28;20037;-27
2022/03/06 03:02:29;;;;;;;11.40;8.10;;;;;;;3.84;94.40;102746.19;5074867;28;20051;-30
2022/03/06 03:04:57;;;;;;;13.93;9.77;;;;;;;3.87;94.80;102745.78;5074516;28;20091;-31
2022/03/06 03:07:25;;;;;;;14.65;9.43;;;;;;;3.86;95.12;102744.91;5073914;28;20048;-32
2022/03/06 03:09:52;;;;;;;13.57;9.13;;;;;;;3.89;95.45;102749.19;5075066;28;20084;-30
2022/03/06 03:12:20;;;;;;;11.55;8.68;;;;;;;3.90;95.68;102750.88;5074218;28;20049;-29
2022/03/06 03:14:49;;;;;;;12.65;8.45;;;;;;;3.91;95.86;102750.69;5073799;28;20048;-33
2022/03/06 03:17:17;;;;;;;11.98;7.90;;;;;;;3.91;96.36;102753.44;5074412;28;20405;-29
2022/03/06 03:19:45;;;;;;;11.15;8.57;;;;;;;3.93;96.65;102742.19;5074349;28;20058;-28
2022/03/06 03:22:13;;;;;;;14.52;9.60;;;;;;;3.93;97.03;102756.84;5073607;28;20059;-29
2022/03/06 03:24:41;;;;;;;13.48;9.77;;;;;;;3.95;97.38;102756.63;5065088;28;20082;-29
2022/03/06 03:27:08;;;;;;;11.07;8.25;;;;;;;3.94;97.48;102746.66;5074460;28;20048;-28
2022/03/06 03:29:36;;;;;;;10.93;7.80;;;;;;;3.94;97.69;102754.94;5073543;28;20044;-28
2022/03/06 03:32:06;;;;;;;11.68;8.90;;;;;;;3.93;97.74;102756.84;5074225;28;20044;-31
2022/03/06 03:34:35;;;;;;;11.82;8.15;;;;;;;3.92;97.89;102752.38;5074318;28;20102;-28
2022/03/06 03:37:03;;;;;;;12.35;8.23;;;;;;;3.91;97.82;102761.72;5073083;28;20477;-32
2022/03/06 03:39:31;;;;;;;15.57;10.15;;;;;;;3.93;97.80;102761.50;5074312;28;20057;-30
2022/03/06 03:41:58;;;;;;;14.80;9.38;;;;;;;3.92;98.41;102765.34;5062155;28;20055;-32
2022/03/06 03:44:26;;;;;;;13.57;9.60;;;;;;;3.92;98.66;102771.72;5074062;28;20040;-31
2022/03/06 03:46:54;;;;;;;12.95;9.10;;;;;;;3.91;99.00;102769.16;5073938;28;20079;-28
2022/03/06 03:49:23;;;;;;;11.80;9.50;;;;;;;3.90;99.20;102771.06;5073194;28;20056;-31
2022/03/06 03:51:51;;;;;;;14.50;10.38;;;;;;;3.90;99.55;102773.81;5073686;28;20048;-30
2022/03/06 03:54:18;;;;;;;12.38;9.07;;;;;;;3.90;99.89;102778.50;5074428;28;20033;-29
2022/03/06 03:56:46;;;;;;;10.10;8.23;;;;;;;3.89;100.00;102780.41;5071786;28;20044;-27
2022/03/06 03:59:14;;;;;;;10.85;8.52;;;;;;;3.89;100.00;102783.16;5073949;28;20053;-27
2022/03/06 04:01:41;;;;;;;9.65;7.68;;;;;;;3.91;100.00;102782.97;5073550;28;20045;-27
2022/03/06 04:04:09;;;;;;;10.93;7.93;;;;;;;3.91;100.00;102792.09;5072759;28;20446;-29
2022/03/06 04:06:38;;;;;;;10.65;7.10;;;;;;;3.91;100.00;102791.25;5074087;28;20051;-30
2022/03/06 04:09:06;;;;;;;10.18;7.65;;;;;;;3.89;100.00;102794.22;5073447;28;20045;-29
2022/03/06 04:11:34;;;;;;;9.75;7.32;;;;;;;3.91;100.00;102794.00;5072682;28;20068;-31
2022/03/06 04:14:02;;;;;;;10.35;7.65;;;;;;;3.91;100.00;102789.34;5073192;28;20049;-29
2022/03/06 04:16:30;;;;;;;9.70;6.95;;;;;;;3.92;100.00;102796.56;5073430;28;20135;-29
2022/03/06 04:18:57;;;;;;;9.75;6.72;;;;;;;3.91;100.00;102785.72;5072364;28;20048;-28
2022/03/06 04:21:25;;;;;;;10.35;6.60;;;;;;;3.88;100.00;102781.47;5072981;28;20496;-29
2022/03/06 04:23:54;;;;;;;10.73;6.60;;;;;;;3.88;100.00;102792.50;5073365;28;20485;-29
2022/03/06 04:26:22;;;;;;;9.32;5.85;;;;;;;3.87;100.00;102782.53;5072304;28;20045;-31
2022/03/06 04:28:49;;;;;;;12.80;6.53;;;;;;;3.86;100.00;102785.50;5073086;28;20055;-35
2022/03/06 04:31:17;;;;;;;8.10;6.47;;;;;;;3.85;100.00;102790.16;5071958;28;20132;-28
2022/03/06 04:33:45;;;;;;;9.10;6.38;;;;;;;3.85;100.00;102784.63;5072783;28;20454;-30
2022/03/06 04:36:13;;;;;;;9.68;6.65;;;;;;;3.87;100.00;102793.56;5072941;28;20111;-29
2022/03/06 04:38:41;;;;;;;8.70;6.00;;;;;;;3.86;100.00;102794.63;5071885;28;20127;-31
2022/03/06 04:41:10;;;;;;;9.93;6.70;;;;;;;3.86;100.00;102786.34;5072875;28;20048;-27
2022/03/06 04:43:38;;;;;;;9.35;6.05;;;;;;;3.87;100.00;102795.47;5069233;28;20048;-25
2022/03/06 04:46:06;;;;;;;9.20;5.50;;;;;;;3.86;100.00;102800.16;5060921;28;20099;-27
2022/03/06 04:48:34;;;;;;;8.90;5.93;;;;;;;3.85;99.83;102803.13;5072450;28;20048;-26
2022/03/06 04:51:01;;;;;;;9.65;6.03;;;;;;;3.83;99.48;102810.75;5072824;28;20139;-28
2022/03/06 04:53:29;;;;;;;8.80;5.93;;;;;;;3.82;99.04;102812.66;5071855;28;20068;-29
2022/03/06 04:55:57;;;;;;;8.55;5.45;;;;;;;3.81;99.04;102817.34;5073427;28;20049;-28
2022/03/06 04:58:31;;;;;;;9.10;5.53;;;;;;;3.82;98.88;102812.66;5072279;28;20052;-29
2022/03/06 05:00:59;;;;;;;7.00;5.28;;;;;;;3.83;98.88;102813.50;5071654;28;20090;-27
2022/03/06 05:03:27;;;;;;;10.55;5.70;;;;;;;3.83;98.70;102810.75;5072352;28;20048;-29
2022/03/06 05:05:55;;;;;;;7.05;5.10;;;;;;;3.84;98.74;102817.97;5072354;28;20135;-28
2022/03/06 05:08:26;;;;;;;9.27;5.90;;;;;;;3.84;98.73;102823.50;5071275;28;20040;-29
2022/03/06 05:10:54;;;;;;;10.38;6.15;;;;;;;3.85;98.58;102814.16;5072116;28;20059;-28
2022/03/06 05:13:22;;;;;;;9.75;6.38;;;;;;;3.85;98.70;102820.53;5071805;28;20064;-28
2022/03/06 05:15:52;;;;;;;11.15;7.07;;;;;;;3.87;98.65;102817.56;5072403;28;20044;-31
2022/03/06 05:18:20;;;;;;;13.98;8.73;;;;;;;3.87;98.73;102814.81;5072156;28;20090;-29
2022/03/06 05:20:48;;;;;;;10.32;7.45;;;;;;;3.88;99.05;102822.03;5071211;28;20052;-28
2022/03/06 05:23:17;;;;;;;10.35;7.07;;;;;;;3.88;98.86;102830.31;5071738;28;20045;-31
2022/03/06 05:25:44;;;;;;;11.93;7.75;;;;;;;3.88;99.39;102824.78;5071870;28;20486;-28
2022/03/06 05:28:13;;;;;;;10.68;7.32;;;;;;;3.87;99.67;102834.13;5071224;28;20151;-26
2022/03/06 05:30:41;;;;;;;12.00;7.20;;;;;;;3.84;99.20;102829.03;5072253;28;20036;-29
2022/03/06 05:33:10;;;;;;;9.85;6.80;;;;;;;3.83;99.15;102843.88;5071766;28;20460;-30
2022/03/06 05:35:38;;;;;;;7.95;6.00;;;;;;;3.78;98.95;102837.09;5070812;28;20443;-31
2022/03/06 05:38:05;;;;;;;9.65;5.93;;;;;;;3.76;98.48;102839.22;5071851;28;20056;-29
2022/03/06 05:40:33;;;;;;;9.07;5.38;;;;;;;3.73;97.75;102836.84;5072007;28;20052;-29
2022/03/06 05:43:01;;;;;;;7.60;5.35;;;;;;;3.72;97.74;102843.44;5071182;28;20084;-26
2022/03/06 05:45:29;;;;;;;8.23;5.85;;;;;;;3.72;97.47;102848.09;5071486;28;20390;-28
2022/03/06 05:47:57;;;;;;;9.70;5.95;;;;;;;3.70;97.26;102845.53;5071822;28;20059;-31
2022/03/06 05:50:27;;;;;;;6.82;4.68;;;;;;;3.69;97.16;102856.78;5070515;28;20071;-31
2022/03/06 05:52:54;;;;;;;7.78;5.18;;;;;;;3.69;96.93;102854.88;5068219;28;20553;-27
2022/03/06 05:55:22;;;;;;;8.95;5.22;;;;;;;3.68;96.75;102855.94;5071725;28;20049;-33
2022/03/06 05:57:50;;;;;;;7.43;4.68;;;;;;;3.67;96.47;102856.13;5070664;28;20509;-30
2022/03/06 06:00:18;;;;;;;6.65;4.70;;;;;;;3.66;96.21;102855.28;5071579;28;20409;-30
2022/03/06 06:02:46;;;;;;;9.60;4.70;;;;;;;3.62;95.53;102870.53;5070576;28;20057;-26
2022/03/06 06:05:15;;;;;;;6.88;4.50;;;;;;;3.63;95.25;102871.41;5071282;28;20522;-27
2022/03/06 06:07:44;;;;;;;6.18;3.90;;;;;;;3.62;95.07;102869.69;5071346;28;20508;-26
2022/03/06 06:10:12;;;;;;;7.30;4.00;;;;;;;3.61;94.83;102873.50;5060757;28;20032;-26
2022/03/06 06:12:40;;;;;;;7.63;3.95;;;;;;;3.60;94.48;102875.41;5069807;28;20056;-26
2022/03/06 06:15:09;;;;;;;8.25;3.97;;;;;;;3.59;94.38;102872.88;5071338;28;20091;-31
2022/03/06 06:17:37;;;;;;;7.07;3.53;;;;;;;3.57;93.78;102878.63;5070046;28;20136;-29
2022/03/06 06:20:07;;;;;;;6.60;3.55;;;;;;;3.58;93.68;102879.47;5074560;28;20056;-30
2022/03/06 06:22:36;;;;;;;5.03;3.17;;;;;;;3.56;93.50;102879.66;5074091;28;20059;-31
2022/03/06 06:25:05;;;;;;;6.90;2.90;;;;;;;3.57;93.02;102891.56;5074088;28;20381;-28
2022/03/06 06:27:33;;;;;;;4.85;3.20;;;;;;;3.56;92.71;102892.63;5063053;28;20400;-30
2022/03/06 06:30:01;;;;;;;5.72;3.10;;;;;;;3.54;92.42;102890.06;5073693;28;20055;-28
2022/03/06 06:32:29;;;;;;;5.53;3.03;;;;;;;3.54;92.10;102901.09;5074489;28;20420;-31
2022/03/06 06:34:56;;;;;;;6.88;2.85;;;;;;;3.54;91.77;102895.56;5075375;28;20053;-29
2022/03/06 06:37:24;;;;;;;6.22;2.90;;;;;;;3.54;91.50;102903.00;5071780;28;20045;-29
2022/03/06 06:39:52;;;;;;;4.75;2.95;;;;;;;3.52;90.72;102903.19;5074591;28;20044;-27
2022/03/06 06:42:21;;;;;;;6.35;2.75;;;;;;;3.51;90.26;102906.16;5074232;28;20428;-31
2022/03/06 06:44:49;;;;;;;5.55;2.70;;;;;;;3.52;89.98;102908.72;5073447;28;20055;-28
2022/03/06 06:47:17;;;;;;;4.15;2.60;;;;;;;3.51;89.90;102911.69;5073837;28;20044;-29
2022/03/06 06:49:44;;;;;;;4.05;2.40;;;;;;;3.53;89.72;102913.19;5074086;28;20086;-28
2022/03/06 06:52:12;;;;;;;6.03;2.90;;;;;;;3.57;89.74;102919.16;5073161;28;20079;-32
2022/03/06 06:54:40;;;;;;;4.32;2.30;;;;;;;3.58;89.91;102920.88;5073464;28;20056;-29
2022/03/06 06:57:08;;;;;;;6.75;2.38;;;;;;;3.57;89.54;102922.78;5073646;28;20048;-27
2022/03/06 06:59:37;;;;;;;5.22;2.08;;;;;;;3.58;89.27;102924.47;5071564;28;20068;-27
2022/03/06 07:02:05;;;;;;;8.02;2.55;;;;;;;3.58;88.96;102923.63;5071745;28;20045;-28
2022/03/06 07:04:33;;;;;;;4.75;1.98;;;;;;;3.56;88.33;102937.63;5073553;28;20087;-29
2022/03/06 07:07:01;;;;;;;4.00;1.90;;;;;;;3.55;87.50;102930.41;5072455;28;20091;-28
2022/03/06 07:09:29;;;;;;;5.47;1.73;;;;;;;3.52;86.06;102930.81;5073210;28;20063;-28
2022/03/06 07:11:56;;;;;;;4.25;1.20;;;;;;;3.53;85.44;102938.03;5073601;28;20358;-29
2022/03/06 07:14:24;;;;;;;4.05;1.50;;;;;;;3.57;84.94;102932.97;5072768;28;20044;-28
2022/03/06 07:16:53;;;;;;;5.18;1.48;;;;;;;3.70;85.19;102933.88;5073456;28;20129;-30
2022/03/06 07:19:21;;;;;;;4.93;1.27;;;;;;;4.01;85.06;102950.00;5073104;28;20051;-28
2022/03/06 07:21:48;;;;;;;4.85;1.20;;;;;;;4.36;82.75;102944.44;5072452;28;20509;-29
2022/03/06 07:24:16;;;;;;;3.13;1.10;;;;;;;4.68;81.40;102940.91;5072989;28;20052;-27
2022/03/06 07:26:44;;;;;;;3.28;1.20;;;;;;;4.87;78.25;102941.16;5073260;28;20378;-30
2022/03/06 07:29:12;;;;;;;3.42;1.15;;;;;;;4.79;75.25;102950.50;5072153;28;20513;-28
2022/03/06 07:31:40;;;;;;;4.68;1.58;;;;;;;4.74;75.34;102953.91;5073022;28;20052;-29
2022/03/06 07:34:09;;;;;;;4.78;1.25;;;;;;;4.71;74.40;102954.31;5069700;28;20415;-28
2022/03/06 07:36:36;;;;;;;2.17;1.00;;;;;;;4.98;74.59;102952.47;5072984;28;20052;-27
2022/03/06 07:39:04;;;;;;;4.38;1.20;;;;;;;5.44;71.86;102951.59;5072699;28;20051;-28
2022/03/06 07:41:32;;;;;;;2.78;0.98;;;;;;;5.87;70.31;102963.06;5072546;28;20060;-28
2022/03/06 07:44:00;;;;;;;3.78;1.35;;;;;;;6.44;70.20;102965.03;5072591;28;20052;-32
2022/03/06 07:46:28;;;;;;;3.05;1.38;;;;;;;6.80;66.53;102960.78;5072878;28;20144;-30
2022/03/06 07:48:56;;;;;;;2.40;1.20;;;;;;;7.09;65.74;102970.41;5072065;28;20052;-36
2022/03/06 07:51:25;;;;;;;3.88;1.55;;;;;;;7.40;63.83;102969.53;5072496;28;20480;-30
2022/03/06 07:53:52;;;;;;;4.40;1.13;;;;;;;7.65;62.12;102967.59;5072577;28;20056;-27
2022/03/06 07:56:20;;;;;;;3.65;1.10;;;;;;;7.87;60.84;102968.03;5071859;28;20055;-31
2022/03/06 07:58:48;;;;;;;3.47;1.02;;;;;;;8.20;59.46;102973.22;5072497;28;20142;-30
2022/03/06 08:01:15;;;;;;;2.05;1.02;;;;;;;8.52;58.40;102971.16;5070588;28;20509;-28
2022/03/06 08:03:43;;;;;;;4.05;1.20;;;;;;;8.90;56.97;102965.28;5071413;28;20536;-33
2022/03/06 08:06:11;;;;;;;2.85;1.20;;;;;;;9.32;55.00;102966.13;5072348;28;20048;-31
2022/03/06 08:08:41;;;;;;;2.75;1.10;;;;;;;9.58;52.40;102967.63;5072542;28;20048;-31
2022/03/06 08:11:08;;;;;;;2.67;1.20;;;;;;;9.61;50.75;102969.91;5071567;28;20528;-35
2022/03/06 08:13:36;;;;;;;3.38;1.27;;;;;;;9.67;50.53;102975.34;5072593;28;20052;-31
2022/03/06 08:16:04;;;;;;;3.08;1.10;;;;;;;9.91;50.92;102967.00;5072215;28;20042;-28
2022/03/06 08:18:32;;;;;;;4.25;1.10;;;;;;;10.18;49.88;102971.00;5071456;28;20056;-32
2022/03/06 08:21:00;;;;;;;2.42;1.10;;;;;;;10.49;49.36;102968.88;5072206;28;20056;-36
2022/03/06 08:23:28;;;;;;;3.47;1.02;;;;;;;10.79;48.74;102966.69;5071380;28;20048;-34
2022/03/06 08:25:57;;;;;;;2.20;1.00;;;;;;;11.02;47.03;102962.94;5071925;28;20409;-31
2022/03/06 08:28:25;;;;;;;2.40;1.05;;;;;;;11.12;47.01;102973.47;5072248;28;20048;-33
2022/03/06 08:30:52;;;;;;;3.65;1.20;;;;;;;11.05;45.96;102970.81;5070644;28;20075;-34
2022/03/06 08:33:20;;;;;;;2.95;1.17;;;;;;;11.05;45.74;102982.00;5072105;28;20443;-29
2022/03/06 08:35:48;;;;;;;3.20;1.02;;;;;;;11.14;45.84;102977.72;5071761;28;20041;-34
2022/03/06 08:38:17;;;;;;;2.67;1.50;;;;;;;11.34;44.92;102985.63;5071172;28;20109;-30
2022/03/06 08:40:45;;;;;;;2.53;1.10;;;;;;;11.31;44.67;102986.97;5072499;28;20395;-33
2022/03/06 08:43:14;;;;;;;3.72;1.27;;;;;;;11.29;44.52;102991.09;5071721;28;20489;-33
2022/03/06 08:45:42;;;;;;;3.33;1.20;;;;;;;11.32;43.99;102985.03;5071924;28;20052;-29
2022/03/06 08:48:10;;;;;;;2.15;1.10;;;;;;;11.52;44.71;102982.56;5072777;28;20070;-31
2022/03/06 08:50:38;;;;;;;3.00;1.10;;;;;;;12.02;44.37;102979.75;5072669;28;20048;-33
2022/03/06 08:53:07;;;;;;;4.05;1.50;;;;;;;12.53;43.32;102983.28;5071902;28;20044;-28
2022/03/06 08:55:34;;;;;;;3.78;1.35;;;;;;;12.75;42.47;102986.91;5072567;28;20146;-32
2022/03/06 08:58:02;;;;;;;5.20;1.40;;;;;;;12.73;41.83;102994.72;5072282;28;20135;-31
2022/03/06 09:00:31;;;;;;;3.85;1.20;;;;;;;12.99;41.68;102992.22;5071755;28;20071;-32
2022/03/06 09:02:59;;;;;;;2.33;0.95;;;;;;;13.13;40.37;102998.25;5072437;28;20045;-31
2022/03/06 09:05:28;;;;;;;3.25;1.27;;;;;;;12.81;39.33;102992.56;5072057;28;20060;-31
2022/03/06 09:07:56;;;;;;;5.90;1.60;;;;;;;12.66;40.92;102994.06;5072316;28;20550;-32
2022/03/06 09:10:24;;;;;;;3.53;1.20;;;;;;;12.92;41.19;102994.38;5072089;28;20071;-31
2022/03/06 09:12:52;;;;;;;3.42;1.20;;;;;;;13.33;40.88;102999.34;5071248;28;20582;-33
2022/03/06 09:15:20;;;;;;;2.53;1.10;;;;;;;13.71;39.95;103003.88;5072348;28;20087;-30
2022/03/06 09:17:54;;;;;;;2.47;1.10;;;;;;;13.70;38.84;103004.16;5072018;28;20092;-32
2022/03/06 09:20:22;;;;;;;2.10;0.90;;;;;;;13.54;39.20;103011.59;5071248;28;20413;-32
2022/03/06 09:22:50;;;;;;;2.55;1.20;;;;;;;13.62;38.91;103019.50;5071704;28;20634;-32
2022/03/06 09:25:18;;;;;;;2.95;1.20;;;;;;;13.51;38.55;103009.31;5072233;28;20048;-32
2022/03/06 09:27:45;;;;;;;4.13;1.20;;;;;;;13.64;38.80;103008.88;5070840;28;20490;-33
2022/03/06 09:30:14;;;;;;;3.10;1.27;;;;;;;13.76;39.12;103020.78;5072213;28;20044;-31
2022/03/06 09:32:42;;;;;;;3.20;1.08;;;;;;;13.94;38.58;103021.47;5071642;28;20132;-34
2022/03/06 09:35:11;;;;;;;2.40;1.08;;;;;;;14.02;38.83;103024.59;5070104;28;20132;-31
2022/03/06 09:37:43;;;;;;;2.33;1.17;;;;;;;14.30;38.62;103017.78;5071685;28;20053;-31
2022/03/06 09:40:12;;;;;;;1.85;0.85;;;;;;;14.65;38.54;103024.72;5071716;28;20044;-32
2022/03/06 09:42:40;;;;;;;3.70;1.23;;;;;;;14.71;37.10;103023.63;5071165;28;20052;-35
2022/03/06 09:45:10;;;;;;;3.55;1.10;;;;;;;14.40;37.31;103022.59;5071342;28;20420;-37
2022/03/06 09:47:39;;;;;;;3.38;1.27;;;;;;;14.45;37.59;103017.03;5071473;28;20061;-31
2022/03/06 09:50:10;;;;;;;2.50;1.10;;;;;;;14.59;36.79;103018.22;5071414;28;20413;-29
2022/03/06 09:52:39;;;;;;;2.55;1.10;;;;;;;14.38;37.00;103022.91;5062473;28;20401;-30
2022/03/06 09:55:09;;;;;;;3.20;1.20;;;;;;;14.30;37.09;103022.53;5070212;28;20060;-30
2022/03/06 09:57:37;;;;;;;3.25;1.25;;;;;;;14.13;36.48;103020.75;5071323;28;20056;-32
2022/03/06 10:00:06;;;;;;;2.80;1.13;;;;;;;13.86;36.61;103025.59;5071407;28;20088;-39
2022/03/06 10:02:52;;;;;;;3.38;1.38;;;;;;;13.41;34.53;103032.50;5070451;28;20139;-30
2022/03/06 10:05:30;;;;;;;3.88;1.23;;;;;;;13.06;37.73;103032.09;5071189;28;20116;-36
2022/03/06 10:08:18;;;;;;;3.20;1.17;;;;;;;13.07;37.26;103028.19;5071325;28;20053;-33
2022/03/06 10:10:47;;;;;;;3.15;1.15;;;;;;;13.13;38.60;103027.13;5070092;28;20052;-35
2022/03/06 10:13:23;;;;;;;2.78;1.30;;;;;;;12.96;38.52;103026.38;5070948;28;20353;-28
2022/03/06 10:16:12;;;;;;;3.63;1.30;;;;;;;12.99;37.88;103031.47;5070239;28;20044;-32
2022/03/06 10:18:43;;;;;;;3.63;1.40;;;;;;;13.04;38.83;103028.69;5063459;28;20063;-33
2022/03/06 10:21:22;;;;;;;2.47;1.20;;;;;;;13.20;38.34;103027.78;5070615;28;20501;-30
2022/03/06 10:23:55;;;;;;;3.45;1.23;;;;;;;13.16;38.37;103028.59;5062729;28;20063;-28
2022/03/06 10:26:24;;;;;;;3.10;1.38;;;;;;;13.11;38.16;103030.19;5070861;28;20048;-33
2022/03/06 10:28:55;;;;;;;3.03;1.50;;;;;;;12.94;38.03;103034.19;5062362;28;20110;-31
2022/03/06 10:31:24;;;;;;;5.15;1.60;;;;;;;12.68;38.71;103030.22;5070095;28;20040;-28
2022/03/06 10:34:04;;;;;;;3.45;1.30;;;;;;;12.68;38.45;103035.84;5070500;28;20113;-32
2022/03/06 10:36:38;;;;;;;3.55;1.40;;;;;;;12.65;38.65;103031.59;5070714;28;20143;-27
2022/03/06 10:39:13;;;;;;;2.97;1.30;;;;;;;12.74;38.87;103040.41;5069981;28;20481;-31
2022/03/06 10:41:42;;;;;;;2.80;1.15;;;;;;;12.88;39.24;103043.66;5070629;28;20049;-34
2022/03/06 10:44:11;;;;;;;4.03;1.45;;;;;;;13.23;38.68;103032.88;5069488;28;20408;-31
2022/03/06 10:46:40;;;;;;;3.42;1.52;;;;;;;13.59;38.09;103042.47;5070366;28;20503;-29
2022/03/06 10:49:12;;;;;;;5.50;1.60;;;;;;;13.72;37.70;103041.22;5070492;28;20052;-31
2022/03/06 10:51:45;;;;;;;2.97;1.35;;;;;;;13.92;38.10;103032.97;5068816;28;20079;-34
2022/03/06 10:54:14;;;;;;;;;;;;;;;14.04;35.95;103032.75;5070177;28;20037;-32
2022/03/06 10:56:44;;;;;;;3.60;1.20;;;;;;;14.12;38.15;103035.91;5069937;28;19920;-30
2022/03/06 10:59:19;;;;;;;3.30;1.30;;;;;;;14.35;37.68;103028.19;5069634;28;20574;-28
2022/03/06 11:01:48;;;;;;;3.92;1.20;;;;;;;14.49;37.08;103026.63;5070508;28;20037;-31
2022/03/06 11:04:18;;;;;;;4.18;1.40;;;;;;;14.53;36.86;103027.78;5070308;28;20041;-29
2022/03/06 11:06:48;;;;;;;3.05;1.30;;;;;;;14.61;36.73;103035.66;5071289;28;20136;-32
2022/03/06 11:09:19;;;;;;;4.45;1.65;;;;;;;14.49;36.56;103035.06;5072706;28;20572;-28
2022/03/06 11:11:50;;;;;;;4.28;1.65;;;;;;;14.47;37.05;103031.66;5073178;28;20055;-30
2022/03/06 11:14:19;;;;;;;3.60;1.40;;;;;;;14.52;36.84;103022.44;5072505;28;20511;-30
2022/03/06 11:16:47;;;;;;;4.03;1.70;;;;;;;14.54;36.76;103031.44;5073154;28;20046;-31
2022/03/06 11:19:15;;;;;;;4.40;1.35;;;;;;;14.42;36.74;103031.63;5072181;28;20478;-29
2022/03/06 11:21:46;;;;;;;3.95;1.50;;;;;;;14.45;36.84;103023.50;5071734;28;20067;-31
2022/03/06 11:24:19;;;;;;;3.72;1.38;;;;;;;14.43;37.05;103036.13;5073092;28;20599;-31
2022/03/06 11:27:08;;;;;;;2.95;1.35;;;;;;;14.37;36.54;103034.41;5072067;28;20053;-32
2022/03/06 11:30:05;;;;;;;3.22;1.30;;;;;;;14.33;35.51;103039.72;5062242;28;20055;-31
2022/03/06 11:32:35;;;;;;;2.72;1.30;;;;;;;14.19;37.22;103037.66;5066230;28;20088;-32